sensor_id;sensor_type;location;lat;lon;timestamp;P1;durP1;ratioP1;P2;durP2;ratioP2
44728;SDS011;30457;53.590;9.922;2022-11-15T00:02:18;19.20;;;11.75;;
44728;SDS011;30457;53.590;9.922;2022-11-15T00:07:02;24.13;;;12.48;;
44728;SDS011;30457;53.590;9.922;2022-11-15T00:11:46;20.70;;;12.43;;
44728;SDS011;30457;53.590;9.922;2022-11-15T00:16:30;24.77;;;12.85;;
44728;SDS011;30457;53.590;9.922;2022-11-15T00:21:15;20.00;;;12.38;;
44728;SDS011;30457;53.590;9.922;2022-11-15T00:26:00;20.60;;;11.93;;
44728;SDS011;30457;53.590;9.922;2022-11-15T00:30:45;19.38;;;12.35;;
44728;SDS011;30457;53.590;9.922;2022-11-15T00:35:33;17.88;;;10.30;;
44728;SDS011;30457;53.590;9.922;2022-11-15T00:40:18;18.63;;;11.48;;
44728;SDS011;30457;53.590;9.922;2022-11-15T00:45:02;18.95;;;11.50;;
44728;SDS011;30457;53.590;9.922;2022-11-15T00:49:46;19.40;;;11.70;;
44728;SDS011;30457;53.590;9.922;2022-11-15T00:54:30;18.63;;;11.35;;
44728;SDS011;30457;53.590;9.922;2022-11-15T00:59:15;19.70;;;10.82;;
44728;SDS011;30457;53.590;9.922;2022-11-15T01:03:59;17.50;;;11.07;;
44728;SDS011;30457;53.590;9.922;2022-11-15T01:08:43;18.08;;;11.43;;
44728;SDS011;30457;53.590;9.922;2022-11-15T01:13:29;17.85;;;11.02;;
44728;SDS011;30457;53.590;9.922;2022-11-15T01:18:14;16.27;;;10.60;;
44728;SDS011;30457;53.590;9.922;2022-11-15T01:22:57;18.83;;;11.68;;
44728;SDS011;30457;53.590;9.922;2022-11-15T01:27:42;19.35;;;11.05;;
44728;SDS011;30457;53.590;9.922;2022-11-15T01:32:26;16.92;;;10.68;;
44728;SDS011;30457;53.590;9.922;2022-11-15T01:37:10;16.77;;;10.73;;
44728;SDS011;30457;53.590;9.922;2022-11-15T01:41:55;14.98;;;9.85;;
44728;SDS011;30457;53.590;9.922;2022-11-15T01:46:40;15.75;;;9.93;;
44728;SDS011;30457;53.590;9.922;2022-11-15T01:51:28;16.00;;;9.93;;
44728;SDS011;30457;53.590;9.922;2022-11-15T01:56:20;18.38;;;10.20;;
44728;SDS011;30457;53.590;9.922;2022-11-15T02:01:09;16.77;;;10.57;;
44728;SDS011;30457;53.590;9.922;2022-11-15T02:05:54;15.37;;;10.23;;
44728;SDS011;30457;53.590;9.922;2022-11-15T02:10:39;15.65;;;10.27;;
44728;SDS011;30457;53.590;9.922;2022-11-15T02:15:24;15.00;;;9.70;;
44728;SDS011;30457;53.590;9.922;2022-11-15T02:35:48;21.00;;;9.48;;
44728;SDS011;30457;53.590;9.922;2022-11-15T02:40:35;14.48;;;9.90;;
44728;SDS011;30457;53.590;9.922;2022-11-15T02:45:31;13.32;;;8.95;;
44728;SDS011;30457;53.590;9.922;2022-11-15T02:50:21;15.32;;;9.43;;
44728;SDS011;30457;53.590;9.922;2022-11-15T02:55:26;14.45;;;9.18;;
44728;SDS011;30457;53.590;9.922;2022-11-15T03:00:15;15.60;;;10.47;;
44728;SDS011;30457;53.590;9.922;2022-11-15T03:05:19;15.38;;;9.93;;
44728;SDS011;30457;53.590;9.922;2022-11-15T03:10:26;19.50;;;9.50;;
44728;SDS011;30457;53.590;9.922;2022-11-15T03:15:37;16.00;;;10.45;;
44728;SDS011;30457;53.590;9.922;2022-11-15T03:20:25;15.95;;;9.70;;
44728;SDS011;30457;53.590;9.922;2022-11-15T03:25:13;15.05;;;9.32;;
44728;SDS011;30457;53.590;9.922;2022-11-15T03:30:05;14.55;;;9.27;;
44728;SDS011;30457;53.590;9.922;2022-11-15T03:34:52;15.68;;;9.25;;
44728;SDS011;30457;53.590;9.922;2022-11-15T03:39:40;15.63;;;9.48;;
44728;SDS011;30457;53.590;9.922;2022-11-15T03:49:30;12.77;;;8.40;;
44728;SDS011;30457;53.590;9.922;2022-11-15T03:54:20;14.93;;;9.18;;
44728;SDS011;30457;53.590;9.922;2022-11-15T03:59:04;12.18;;;7.95;;
44728;SDS011;30457;53.590;9.922;2022-11-15T04:03:48;13.85;;;7.95;;
44728;SDS011;30457;53.590;9.922;2022-11-15T04:08:32;14.00;;;8.50;;
44728;SDS011;30457;53.590;9.922;2022-11-15T04:13:16;18.83;;;8.02;;
44728;SDS011;30457;53.590;9.922;2022-11-15T04:18:00;13.35;;;8.85;;
44728;SDS011;30457;53.590;9.922;2022-11-15T04:22:44;12.60;;;8.40;;
44728;SDS011;30457;53.590;9.922;2022-11-15T04:27:47;12.68;;;8.27;;
44728;SDS011;30457;53.590;9.922;2022-11-15T04:32:31;16.17;;;8.63;;
44728;SDS011;30457;53.590;9.922;2022-11-15T04:37:15;12.77;;;8.50;;
44728;SDS011;30457;53.590;9.922;2022-11-15T04:42:00;12.05;;;7.90;;
44728;SDS011;30457;53.590;9.922;2022-11-15T04:46:44;11.65;;;8.00;;
44728;SDS011;30457;53.590;9.922;2022-11-15T04:51:28;15.73;;;8.50;;
44728;SDS011;30457;53.590;9.922;2022-11-15T04:56:12;14.00;;;8.32;;
44728;SDS011;30457;53.590;9.922;2022-11-15T05:00:56;12.82;;;7.90;;
44728;SDS011;30457;53.590;9.922;2022-11-15T05:05:41;12.38;;;8.20;;
44728;SDS011;30457;53.590;9.922;2022-11-15T05:10:25;12.20;;;7.43;;
44728;SDS011;30457;53.590;9.922;2022-11-15T05:15:09;14.80;;;7.65;;
44728;SDS011;30457;53.590;9.922;2022-11-15T05:19:53;13.18;;;8.25;;
44728;SDS011;30457;53.590;9.922;2022-11-15T05:24:37;13.20;;;7.93;;
44728;SDS011;30457;53.590;9.922;2022-11-15T05:29:22;17.05;;;8.73;;
44728;SDS011;30457;53.590;9.922;2022-11-15T05:34:06;12.10;;;8.07;;
44728;SDS011;30457;53.590;9.922;2022-11-15T05:38:50;12.20;;;8.57;;
44728;SDS011;30457;53.590;9.922;2022-11-15T05:43:35;15.85;;;8.48;;
44728;SDS011;30457;53.590;9.922;2022-11-15T05:48:22;16.48;;;8.88;;
44728;SDS011;30457;53.590;9.922;2022-11-15T05:53:07;13.20;;;7.97;;
44728;SDS011;30457;53.590;9.922;2022-11-15T05:57:51;14.55;;;7.65;;
44728;SDS011;30457;53.590;9.922;2022-11-15T06:02:35;12.68;;;8.00;;
44728;SDS011;30457;53.590;9.922;2022-11-15T06:07:19;11.95;;;7.25;;
44728;SDS011;30457;53.590;9.922;2022-11-15T06:12:03;12.30;;;8.27;;
44728;SDS011;30457;53.590;9.922;2022-11-15T06:16:47;11.35;;;7.63;;
44728;SDS011;30457;53.590;9.922;2022-11-15T06:21:31;15.45;;;7.78;;
44728;SDS011;30457;53.590;9.922;2022-11-15T06:26:15;10.77;;;7.45;;
44728;SDS011;30457;53.590;9.922;2022-11-15T06:31:06;13.38;;;8.05;;
44728;SDS011;30457;53.590;9.922;2022-11-15T06:36:00;15.02;;;8.55;;
44728;SDS011;30457;53.590;9.922;2022-11-15T06:40:48;11.35;;;7.15;;
44728;SDS011;30457;53.590;9.922;2022-11-15T06:45:32;12.40;;;7.72;;
44728;SDS011;30457;53.590;9.922;2022-11-15T06:50:16;11.48;;;7.15;;
44728;SDS011;30457;53.590;9.922;2022-11-15T06:55:01;20.67;;;8.45;;
44728;SDS011;30457;53.590;9.922;2022-11-15T06:59:45;11.65;;;8.13;;
44728;SDS011;30457;53.590;9.922;2022-11-15T07:04:29;12.80;;;7.63;;
44728;SDS011;30457;53.590;9.922;2022-11-15T07:09:13;14.10;;;8.00;;
44728;SDS011;30457;53.590;9.922;2022-11-15T07:13:57;12.05;;;6.88;;
44728;SDS011;30457;53.590;9.922;2022-11-15T07:18:42;13.85;;;7.95;;
44728;SDS011;30457;53.590;9.922;2022-11-15T07:23:26;13.93;;;8.25;;
44728;SDS011;30457;53.590;9.922;2022-11-15T07:28:11;12.82;;;8.43;;
44728;SDS011;30457;53.590;9.922;2022-11-15T07:32:56;14.98;;;8.25;;
44728;SDS011;30457;53.590;9.922;2022-11-15T07:42:26;22.05;;;8.00;;
44728;SDS011;30457;53.590;9.922;2022-11-15T07:47:29;12.65;;;7.72;;
44728;SDS011;30457;53.590;9.922;2022-11-15T07:52:13;10.15;;;6.95;;
44728;SDS011;30457;53.590;9.922;2022-11-15T07:56:57;12.00;;;7.90;;
44728;SDS011;30457;53.590;9.922;2022-11-15T08:01:41;19.23;;;8.25;;
44728;SDS011;30457;53.590;9.922;2022-11-15T08:06:25;12.45;;;7.97;;
44728;SDS011;30457;53.590;9.922;2022-11-15T08:11:10;13.50;;;8.35;;
44728;SDS011;30457;53.590;9.922;2022-11-15T08:15:57;14.68;;;8.38;;
44728;SDS011;30457;53.590;9.922;2022-11-15T08:20:43;12.48;;;7.63;;
44728;SDS011;30457;53.590;9.922;2022-11-15T08:25:27;17.38;;;8.45;;
44728;SDS011;30457;53.590;9.922;2022-11-15T08:34:59;12.05;;;6.65;;
44728;SDS011;30457;53.590;9.922;2022-11-15T08:39:43;12.30;;;8.13;;
44728;SDS011;30457;53.590;9.922;2022-11-15T08:44:27;11.20;;;7.47;;
44728;SDS011;30457;53.590;9.922;2022-11-15T08:49:11;11.50;;;7.60;;
44728;SDS011;30457;53.590;9.922;2022-11-15T08:53:55;10.02;;;7.10;;
44728;SDS011;30457;53.590;9.922;2022-11-15T08:58:40;12.80;;;6.93;;
44728;SDS011;30457;53.590;9.922;2022-11-15T09:03:26;16.38;;;7.75;;
44728;SDS011;30457;53.590;9.922;2022-11-15T09:08:10;13.63;;;7.88;;
44728;SDS011;30457;53.590;9.922;2022-11-15T09:12:56;11.45;;;7.13;;
44728;SDS011;30457;53.590;9.922;2022-11-15T09:17:41;12.80;;;7.28;;
44728;SDS011;30457;53.590;9.922;2022-11-15T09:22:25;12.88;;;7.18;;
44728;SDS011;30457;53.590;9.922;2022-11-15T09:27:09;12.75;;;7.07;;
44728;SDS011;30457;53.590;9.922;2022-11-15T09:31:53;14.50;;;7.45;;
44728;SDS011;30457;53.590;9.922;2022-11-15T09:36:37;14.70;;;8.18;;
44728;SDS011;30457;53.590;9.922;2022-11-15T09:41:25;13.75;;;8.23;;
44728;SDS011;30457;53.590;9.922;2022-11-15T09:46:49;14.65;;;7.25;;
44728;SDS011;30457;53.590;9.922;2022-11-15T09:51:45;11.55;;;7.05;;
44728;SDS011;30457;53.590;9.922;2022-11-15T09:56:22;16.40;;;7.88;;
44728;SDS011;30457;53.590;9.922;2022-11-15T10:00:54;18.73;;;7.15;;
44728;SDS011;30457;53.590;9.922;2022-11-15T10:05:24;11.57;;;6.97;;
44728;SDS011;30457;53.590;9.922;2022-11-15T10:09:55;10.15;;;7.30;;
44728;SDS011;30457;53.590;9.922;2022-11-15T10:14:27;11.73;;;7.78;;
44728;SDS011;30457;53.590;9.922;2022-11-15T10:23:52;11.05;;;7.43;;
44728;SDS011;30457;53.590;9.922;2022-11-15T10:28:22;9.82;;;6.95;;
44728;SDS011;30457;53.590;9.922;2022-11-15T10:32:52;13.48;;;7.45;;
44728;SDS011;30457;53.590;9.922;2022-11-15T10:37:27;11.32;;;6.80;;
44728;SDS011;30457;53.590;9.922;2022-11-15T10:41:54;11.25;;;7.15;;
44728;SDS011;30457;53.590;9.922;2022-11-15T10:46:21;9.40;;;6.07;;
44728;SDS011;30457;53.590;9.922;2022-11-15T10:50:49;12.57;;;6.38;;
44728;SDS011;30457;53.590;9.922;2022-11-15T10:59:43;10.07;;;6.65;;
44728;SDS011;30457;53.590;9.922;2022-11-15T11:04:11;10.75;;;6.60;;
44728;SDS011;30457;53.590;9.922;2022-11-15T11:08:37;8.27;;;5.75;;
44728;SDS011;30457;53.590;9.922;2022-11-15T11:13:23;8.95;;;6.35;;
44728;SDS011;30457;53.590;9.922;2022-11-15T11:17:56;9.68;;;6.47;;
44728;SDS011;30457;53.590;9.922;2022-11-15T11:22:45;10.57;;;6.82;;
44728;SDS011;30457;53.590;9.922;2022-11-15T11:27:52;8.80;;;5.60;;
44728;SDS011;30457;53.590;9.922;2022-11-15T11:37:46;14.18;;;6.53;;
44728;SDS011;30457;53.590;9.922;2022-11-15T11:42:48;9.43;;;6.22;;
44728;SDS011;30457;53.590;9.922;2022-11-15T11:47:23;10.75;;;6.57;;
44728;SDS011;30457;53.590;9.922;2022-11-15T11:51:54;8.55;;;6.22;;
44728;SDS011;30457;53.590;9.922;2022-11-15T11:56:34;9.30;;;6.28;;
44728;SDS011;30457;53.590;9.922;2022-11-15T12:05:43;11.50;;;6.10;;
44728;SDS011;30457;53.590;9.922;2022-11-15T12:19:43;9.52;;;6.05;;
44728;SDS011;30457;53.590;9.922;2022-11-15T12:24:12;13.07;;;5.80;;
44728;SDS011;30457;53.590;9.922;2022-11-15T12:28:54;11.67;;;5.73;;
44728;SDS011;30457;53.590;9.922;2022-11-15T12:33:40;8.85;;;5.63;;
44728;SDS011;30457;53.590;9.922;2022-11-15T12:38:11;9.32;;;4.75;;
44728;SDS011;30457;53.590;9.922;2022-11-15T12:42:41;6.93;;;5.20;;
44728;SDS011;30457;53.590;9.922;2022-11-15T12:47:23;6.72;;;4.78;;
44728;SDS011;30457;53.590;9.922;2022-11-15T12:56:20;9.60;;;5.65;;
44728;SDS011;30457;53.590;9.922;2022-11-15T13:00:46;9.30;;;5.18;;
44728;SDS011;30457;53.590;9.922;2022-11-15T13:14:34;9.27;;;5.72;;
44728;SDS011;30457;53.590;9.922;2022-11-15T13:19:09;8.50;;;4.93;;
44728;SDS011;30457;53.590;9.922;2022-11-15T13:23:36;8.13;;;5.30;;
44728;SDS011;30457;53.590;9.922;2022-11-15T13:28:18;7.90;;;5.07;;
44728;SDS011;30457;53.590;9.922;2022-11-15T13:32:47;10.25;;;5.55;;
44728;SDS011;30457;53.590;9.922;2022-11-15T13:41:46;10.63;;;5.97;;
44728;SDS011;30457;53.590;9.922;2022-11-15T13:46:19;9.23;;;5.43;;
44728;SDS011;30457;53.590;9.922;2022-11-15T13:50:46;12.00;;;5.45;;
44728;SDS011;30457;53.590;9.922;2022-11-15T13:55:13;15.07;;;5.70;;
44728;SDS011;30457;53.590;9.922;2022-11-15T13:59:48;8.80;;;5.10;;
44728;SDS011;30457;53.590;9.922;2022-11-15T14:04:18;7.97;;;5.18;;
44728;SDS011;30457;53.590;9.922;2022-11-15T14:09:00;8.95;;;4.90;;
44728;SDS011;30457;53.590;9.922;2022-11-15T14:13:32;10.25;;;4.88;;
44728;SDS011;30457;53.590;9.922;2022-11-15T14:17:57;9.88;;;4.95;;
44728;SDS011;30457;53.590;9.922;2022-11-15T14:22:28;8.50;;;4.35;;
44728;SDS011;30457;53.590;9.922;2022-11-15T14:26:55;11.55;;;5.35;;
44728;SDS011;30457;53.590;9.922;2022-11-15T14:31:20;6.50;;;4.75;;
44728;SDS011;30457;53.590;9.922;2022-11-15T14:35:47;8.07;;;4.55;;
44728;SDS011;30457;53.590;9.922;2022-11-15T14:40:13;6.82;;;5.13;;
44728;SDS011;30457;53.590;9.922;2022-11-15T14:44:42;8.18;;;4.88;;
44728;SDS011;30457;53.590;9.922;2022-11-15T14:49:07;15.50;;;5.78;;
44728;SDS011;30457;53.590;9.922;2022-11-15T14:53:33;8.77;;;4.90;;
44728;SDS011;30457;53.590;9.922;2022-11-15T14:57:58;7.55;;;5.20;;
44728;SDS011;30457;53.590;9.922;2022-11-15T15:02:24;12.23;;;5.93;;
44728;SDS011;30457;53.590;9.922;2022-11-15T15:06:51;9.18;;;5.70;;
44728;SDS011;30457;53.590;9.922;2022-11-15T15:11:24;7.80;;;5.82;;
44728;SDS011;30457;53.590;9.922;2022-11-15T15:15:56;6.28;;;4.63;;
44728;SDS011;30457;53.590;9.922;2022-11-15T15:20:22;7.72;;;5.32;;
44728;SDS011;30457;53.590;9.922;2022-11-15T15:24:47;9.25;;;5.18;;
44728;SDS011;30457;53.590;9.922;2022-11-15T15:29:13;9.88;;;5.05;;
44728;SDS011;30457;53.590;9.922;2022-11-15T15:33:38;8.65;;;4.88;;
44728;SDS011;30457;53.590;9.922;2022-11-15T15:38:05;8.27;;;4.65;;
44728;SDS011;30457;53.590;9.922;2022-11-15T15:42:30;8.90;;;4.95;;
44728;SDS011;30457;53.590;9.922;2022-11-15T15:46:56;6.00;;;4.32;;
44728;SDS011;30457;53.590;9.922;2022-11-15T15:51:22;8.00;;;5.03;;
44728;SDS011;30457;53.590;9.922;2022-11-15T15:55:48;7.20;;;5.35;;
44728;SDS011;30457;53.590;9.922;2022-11-15T16:00:14;8.18;;;4.95;;
44728;SDS011;30457;53.590;9.922;2022-11-15T16:04:40;9.10;;;5.13;;
44728;SDS011;30457;53.590;9.922;2022-11-15T16:09:06;10.13;;;5.30;;
44728;SDS011;30457;53.590;9.922;2022-11-15T16:13:33;8.48;;;5.40;;
44728;SDS011;30457;53.590;9.922;2022-11-15T16:17:59;8.73;;;5.22;;
44728;SDS011;30457;53.590;9.922;2022-11-15T16:22:26;8.85;;;5.20;;
44728;SDS011;30457;53.590;9.922;2022-11-15T16:26:53;8.43;;;5.25;;
44728;SDS011;30457;53.590;9.922;2022-11-15T16:31:19;7.05;;;4.68;;
44728;SDS011;30457;53.590;9.922;2022-11-15T16:35:47;7.32;;;5.30;;
44728;SDS011;30457;53.590;9.922;2022-11-15T16:40:28;9.20;;;5.50;;
44728;SDS011;30457;53.590;9.922;2022-11-15T16:44:55;9.05;;;5.10;;
44728;SDS011;30457;53.590;9.922;2022-11-15T16:49:22;7.15;;;4.80;;
44728;SDS011;30457;53.590;9.922;2022-11-15T16:53:48;8.73;;;4.82;;
44728;SDS011;30457;53.590;9.922;2022-11-15T16:58:14;7.15;;;4.47;;
44728;SDS011;30457;53.590;9.922;2022-11-15T17:02:39;9.30;;;5.47;;
44728;SDS011;30457;53.590;9.922;2022-11-15T17:07:05;9.10;;;5.18;;
44728;SDS011;30457;53.590;9.922;2022-11-15T17:11:31;8.10;;;5.15;;
44728;SDS011;30457;53.590;9.922;2022-11-15T17:16:06;7.53;;;5.30;;
44728;SDS011;30457;53.590;9.922;2022-11-15T17:20:33;7.53;;;5.22;;
44728;SDS011;30457;53.590;9.922;2022-11-15T17:24:59;7.20;;;4.95;;
44728;SDS011;30457;53.590;9.922;2022-11-15T17:29:24;8.45;;;5.13;;
44728;SDS011;30457;53.590;9.922;2022-11-15T17:33:50;8.38;;;5.10;;
44728;SDS011;30457;53.590;9.922;2022-11-15T17:38:15;8.85;;;4.82;;
44728;SDS011;30457;53.590;9.922;2022-11-15T17:42:41;8.20;;;5.05;;
44728;SDS011;30457;53.590;9.922;2022-11-15T17:47:06;6.30;;;4.32;;
44728;SDS011;30457;53.590;9.922;2022-11-15T17:51:32;5.90;;;4.25;;
44728;SDS011;30457;53.590;9.922;2022-11-15T17:56:02;7.22;;;4.32;;
44728;SDS011;30457;53.590;9.922;2022-11-15T18:00:29;7.75;;;5.35;;
44728;SDS011;30457;53.590;9.922;2022-11-15T18:04:55;7.55;;;5.22;;
44728;SDS011;30457;53.590;9.922;2022-11-15T18:09:20;8.00;;;4.95;;
44728;SDS011;30457;53.590;9.922;2022-11-15T18:13:49;8.48;;;5.20;;
44728;SDS011;30457;53.590;9.922;2022-11-15T18:18:16;8.85;;;5.20;;
44728;SDS011;30457;53.590;9.922;2022-11-15T18:22:41;13.40;;;6.45;;
44728;SDS011;30457;53.590;9.922;2022-11-15T18:27:07;12.25;;;5.72;;
44728;SDS011;30457;53.590;9.922;2022-11-15T18:31:33;7.57;;;5.05;;
44728;SDS011;30457;53.590;9.922;2022-11-15T18:36:03;9.95;;;5.22;;
44728;SDS011;30457;53.590;9.922;2022-11-15T18:40:30;8.50;;;5.32;;
44728;SDS011;30457;53.590;9.922;2022-11-15T18:44:56;9.27;;;6.60;;
44728;SDS011;30457;53.590;9.922;2022-11-15T18:49:21;9.38;;;6.03;;
44728;SDS011;30457;53.590;9.922;2022-11-15T18:53:47;7.65;;;5.05;;
44728;SDS011;30457;53.590;9.922;2022-11-15T18:58:16;10.40;;;5.55;;
44728;SDS011;30457;53.590;9.922;2022-11-15T19:02:41;6.40;;;4.75;;
44728;SDS011;30457;53.590;9.922;2022-11-15T19:07:07;9.02;;;5.72;;
44728;SDS011;30457;53.590;9.922;2022-11-15T19:11:34;8.93;;;4.90;;
44728;SDS011;30457;53.590;9.922;2022-11-15T19:16:01;8.25;;;5.10;;
44728;SDS011;30457;53.590;9.922;2022-11-15T19:20:27;7.63;;;4.90;;
44728;SDS011;30457;53.590;9.922;2022-11-15T19:24:53;7.30;;;5.20;;
44728;SDS011;30457;53.590;9.922;2022-11-15T19:29:18;8.65;;;5.18;;
44728;SDS011;30457;53.590;9.922;2022-11-15T19:33:44;14.85;;;5.45;;
44728;SDS011;30457;53.590;9.922;2022-11-15T19:38:10;9.43;;;5.32;;
44728;SDS011;30457;53.590;9.922;2022-11-15T19:42:36;9.15;;;4.88;;
44728;SDS011;30457;53.590;9.922;2022-11-15T19:47:01;8.77;;;5.30;;
44728;SDS011;30457;53.590;9.922;2022-11-15T19:51:27;8.55;;;5.10;;
44728;SDS011;30457;53.590;9.922;2022-11-15T19:55:55;8.45;;;5.57;;
44728;SDS011;30457;53.590;9.922;2022-11-15T20:00:22;7.00;;;5.15;;
44728;SDS011;30457;53.590;9.922;2022-11-15T20:04:48;8.77;;;5.68;;
44728;SDS011;30457;53.590;9.922;2022-11-15T20:09:14;7.90;;;5.18;;
44728;SDS011;30457;53.590;9.922;2022-11-15T20:13:40;9.82;;;5.43;;
44728;SDS011;30457;53.590;9.922;2022-11-15T20:18:06;8.23;;;5.75;;
44728;SDS011;30457;53.590;9.922;2022-11-15T20:22:33;9.10;;;6.07;;
44728;SDS011;30457;53.590;9.922;2022-11-15T20:26:58;9.63;;;5.82;;
44728;SDS011;30457;53.590;9.922;2022-11-15T20:31:24;9.60;;;6.10;;
44728;SDS011;30457;53.590;9.922;2022-11-15T20:35:49;9.27;;;6.40;;
44728;SDS011;30457;53.590;9.922;2022-11-15T20:40:16;10.10;;;6.30;;
44728;SDS011;30457;53.590;9.922;2022-11-15T20:44:41;11.70;;;6.97;;
44728;SDS011;30457;53.590;9.922;2022-11-15T20:49:08;10.90;;;6.13;;
44728;SDS011;30457;53.590;9.922;2022-11-15T20:53:34;11.85;;;6.60;;
44728;SDS011;30457;53.590;9.922;2022-11-15T20:57:59;12.27;;;6.75;;
44728;SDS011;30457;53.590;9.922;2022-11-15T21:02:25;11.10;;;6.95;;
44728;SDS011;30457;53.590;9.922;2022-11-15T21:06:52;10.25;;;7.25;;
44728;SDS011;30457;53.590;9.922;2022-11-15T21:11:18;8.93;;;6.32;;
44728;SDS011;30457;53.590;9.922;2022-11-15T21:16:03;13.73;;;7.82;;
44728;SDS011;30457;53.590;9.922;2022-11-15T21:20:29;10.38;;;7.63;;
44728;SDS011;30457;53.590;9.922;2022-11-15T21:24:54;16.08;;;7.68;;
44728;SDS011;30457;53.590;9.922;2022-11-15T21:29:23;13.93;;;7.68;;
44728;SDS011;30457;53.590;9.922;2022-11-15T21:33:48;11.48;;;7.78;;
44728;SDS011;30457;53.590;9.922;2022-11-15T21:38:14;16.83;;;7.90;;
44728;SDS011;30457;53.590;9.922;2022-11-15T21:42:39;10.77;;;6.72;;
44728;SDS011;30457;53.590;9.922;2022-11-15T21:47:05;11.15;;;7.25;;
44728;SDS011;30457;53.590;9.922;2022-11-15T21:51:31;14.50;;;7.75;;
44728;SDS011;30457;53.590;9.922;2022-11-15T21:55:56;15.45;;;8.15;;
44728;SDS011;30457;53.590;9.922;2022-11-15T22:00:23;12.85;;;8.07;;
44728;SDS011;30457;53.590;9.922;2022-11-15T22:05:07;15.02;;;7.80;;
44728;SDS011;30457;53.590;9.922;2022-11-15T22:09:33;11.68;;;7.75;;
44728;SDS011;30457;53.590;9.922;2022-11-15T22:13:59;19.90;;;9.20;;
44728;SDS011;30457;53.590;9.922;2022-11-15T22:18:25;13.63;;;8.73;;
44728;SDS011;30457;53.590;9.922;2022-11-15T22:22:50;16.67;;;8.30;;
44728;SDS011;30457;53.590;9.922;2022-11-15T22:27:16;14.77;;;8.40;;
44728;SDS011;30457;53.590;9.922;2022-11-15T22:31:41;14.02;;;8.48;;
44728;SDS011;30457;53.590;9.922;2022-11-15T22:36:07;12.00;;;8.02;;
44728;SDS011;30457;53.590;9.922;2022-11-15T22:40:35;13.63;;;8.88;;
44728;SDS011;30457;53.590;9.922;2022-11-15T22:45:01;11.70;;;7.78;;
44728;SDS011;30457;53.590;9.922;2022-11-15T22:49:26;12.73;;;8.32;;
44728;SDS011;30457;53.590;9.922;2022-11-15T22:53:52;11.65;;;7.63;;
44728;SDS011;30457;53.590;9.922;2022-11-15T22:58:18;14.27;;;8.50;;
44728;SDS011;30457;53.590;9.922;2022-11-15T23:02:44;13.25;;;8.00;;
44728;SDS011;30457;53.590;9.922;2022-11-15T23:07:10;13.27;;;8.25;;
44728;SDS011;30457;53.590;9.922;2022-11-15T23:11:35;14.57;;;8.57;;
44728;SDS011;30457;53.590;9.922;2022-11-15T23:16:20;17.17;;;9.00;;
44728;SDS011;30457;53.590;9.922;2022-11-15T23:20:46;12.52;;;8.48;;
44728;SDS011;30457;53.590;9.922;2022-11-15T23:25:12;14.85;;;8.75;;
44728;SDS011;30457;53.590;9.922;2022-11-15T23:29:37;14.05;;;9.50;;
44728;SDS011;30457;53.590;9.922;2022-11-15T23:34:21;13.55;;;8.95;;
44728;SDS011;30457;53.590;9.922;2022-11-15T23:38:47;17.40;;;9.32;;
44728;SDS011;30457;53.590;9.922;2022-11-15T23:43:13;14.18;;;9.40;;
44728;SDS011;30457;53.590;9.922;2022-11-15T23:47:38;17.15;;;9.70;;
44728;SDS011;30457;53.590;9.922;2022-11-15T23:52:04;16.00;;;9.40;;
44728;SDS011;30457;53.590;9.922;2022-11-15T23:56:30;12.52;;;8.00;;
